Time;durP1;ratioP1;P1;durP2;ratioP2;P2;SDS_P1;SDS_P2;PMS_P1;PMS_P2;Temp;Humidity;BMP_temperature;BMP_pressure;BME280_temperature;BME280_humidity;BME280_pressure;Samples;Min_cycle;Max_cycle;Signal;HPM_P1;HPM_P2
2022/07/13 00:00:04;;;;;;;3.90;2.70;;;;;;;;;;5079409;28;20823;-76
2022/07/13 00:02:31;;;;;;;3.10;2.80;;;;;;;;;;5077979;28;20435;-74
2022/07/13 00:04:58;;;;;;;4.07;2.80;;;;;;;;;;5070175;28;20854;-74
2022/07/13 00:07:25;;;;;;;2.80;2.60;;;;;;;;;;5078497;28;20441;-76
2022/07/13 00:09:53;;;;;;;4.20;3.00;;;;;;;;;;5085589;28;20529;-76
2022/07/13 00:12:21;;;;;;;2.67;2.47;;;;;;;;;;5083806;28;20423;-75
2022/07/13 00:14:48;;;;;;;3.95;2.70;;;;;;;;;;5080152;28;21026;-73
2022/07/13 00:17:15;;;;;;;2.72;2.53;;;;;;;;;;5082770;28;20420;-75
2022/07/13 00:19:42;;;;;;;2.30;2.10;;;;;;;;;;5086435;28;20449;-76
2022/07/13 00:22:10;;;;;;;2.97;2.77;;;;;;;;;;5082299;28;20418;-76
2022/07/13 00:24:37;;;;;;;2.50;2.30;;;;;;;;;;5088744;28;20444;-75
2022/07/13 00:27:04;;;;;;;2.53;2.33;;;;;;;;;;5075779;28;20427;-75
2022/07/13 00:29:32;;;;;;;2.65;2.45;;;;;;;;;;5077696;28;20878;-76
2022/07/13 00:31:59;;;;;;;2.60;2.33;;;;;;;;;;5085307;28;20426;-74
2022/07/13 00:34:26;;;;;;;2.60;2.30;;;;;;;;;;5082888;28;20434;-76
2022/07/13 00:36:54;;;;;;;3.17;2.10;;;;;;;;;;5073270;28;20910;-76
2022/07/13 00:39:21;;;;;;;3.20;2.50;;;;;;;;;;5082572;28;20435;-75
2022/07/13 00:41:48;;;;;;;3.15;2.30;;;;;;;;;;5085406;28;20456;-76
2022/07/13 00:44:16;;;;;;;2.42;2.22;;;;;;;;;;5082764;28;20530;-74
2022/07/13 00:46:55;;;;;;;2.55;2.35;;;;;;;;;;5076599;28;20423;-76
2022/07/13 00:49:23;;;;;;;2.60;2.40;;;;;;;;;;5082039;28;20452;-74
2022/07/13 00:51:50;;;;;;;2.28;2.17;;;;;;;;;;5087307;28;20422;-76
2022/07/13 00:54:20;;;;;;;2.75;2.55;;;;;;;;;;5085791;28;20751;-75
2022/07/13 00:56:47;;;;;;;2.60;2.40;;;;;;;;;;5086020;28;20425;-76
2022/07/13 00:59:14;;;;;;;2.40;2.20;;;;;;;;;;5083009;28;20430;-74
2022/07/13 01:01:42;;;;;;;2.58;2.38;;;;;;;;;;5083102;28;20429;-75
2022/07/13 01:04:10;;;;;;;2.70;2.50;;;;;;;;;;5078006;28;20429;-75
2022/07/13 01:06:37;;;;;;;2.90;2.43;;;;;;;;;;5079736;28;20425;-76
2022/07/13 01:09:04;;;;;;;2.50;2.30;;;;;;;;;;5085140;28;20441;-76
2022/07/13 01:11:32;;;;;;;2.90;2.70;;;;;;;;;;5078522;28;20437;-76
2022/07/13 01:13:59;;;;;;;3.03;2.80;;;;;;;;;;5074813;28;20530;-74
2022/07/13 01:16:27;;;;;;;3.10;2.90;;;;;;;;;;5086513;28;20798;-74
2022/07/13 01:18:54;;;;;;;2.70;2.50;;;;;;;;;;5087917;28;20513;-75
2022/07/13 01:21:23;;;;;;;2.60;2.40;;;;;;;;;;5089094;28;20436;-74
2022/07/13 01:23:52;;;;;;;2.50;2.30;;;;;;;;;;5085640;28;20429;-76
2022/07/13 01:26:19;;;;;;;2.40;2.20;;;;;;;;;;5091266;28;20429;-75
2022/07/13 01:28:46;;;;;;;2.60;2.40;;;;;;;;;;5097715;28;20722;-76
2022/07/13 01:31:13;;;;;;;2.40;2.20;;;;;;;;;;5083816;28;20432;-75
2022/07/13 01:33:40;;;;;;;2.45;2.20;;;;;;;;;;5100821;28;20428;-74
2022/07/13 01:36:08;;;;;;;2.40;2.20;;;;;;;;;;5106718;28;20509;-76
2022/07/13 01:38:35;;;;;;;2.45;2.25;;;;;;;;;;5101904;28;20477;-74
2022/07/13 01:41:04;;;;;;;2.50;2.30;;;;;;;;;;5102426;28;20411;-75
2022/07/13 01:43:31;;;;;;;2.30;2.10;;;;;;;;;;5108659;28;20434;-75
2022/07/13 01:45:58;;;;;;;2.70;2.50;;;;;;;;;;5109502;28;20426;-76
2022/07/13 01:48:25;;;;;;;3.80;2.28;;;;;;;;;;5103978;28;20424;-75
2022/07/13 01:50:52;;;;;;;2.60;2.22;;;;;;;;;;5101301;28;20428;-76
2022/07/13 01:53:19;;;;;;;4.50;2.58;;;;;;;;;;5082779;28;20988;-74
2022/07/13 01:55:46;;;;;;;2.17;2.05;;;;;;;;;;5085105;28;20438;-75
2022/07/13 01:58:16;;;;;;;2.67;2.47;;;;;;;;;;5084758;28;20519;-74
2022/07/13 02:00:43;;;;;;;2.70;2.50;;;;;;;;;;5082167;28;20537;-76
2022/07/13 02:03:10;;;;;;;2.40;2.30;;;;;;;;;;5082370;28;20430;-76
2022/07/13 02:05:37;;;;;;;2.35;2.20;;;;;;;;;;5079071;28;20471;-74
2022/07/13 02:08:05;;;;;;;2.80;2.35;;;;;;;;;;5074974;28;20438;-76
2022/07/13 02:10:38;;;;;;;3.50;2.20;;;;;;;;;;5070650;28;20431;-75
2022/07/13 02:13:05;;;;;;;3.05;2.08;;;;;;;;;;5084790;28;20438;-74
2022/07/13 02:15:34;;;;;;;2.05;1.90;;;;;;;;;;5082158;28;20451;-75
2022/07/13 02:18:01;;;;;;;2.38;2.00;;;;;;;;;;5093133;28;20426;-75
2022/07/13 02:20:28;;;;;;;2.30;2.10;;;;;;;;;;5089779;28;20887;-75
2022/07/13 02:22:55;;;;;;;2.22;2.03;;;;;;;;;;5086067;28;20437;-75
2022/07/13 02:25:22;;;;;;;2.30;2.10;;;;;;;;;;5084106;28;20762;-75
2022/07/13 02:27:49;;;;;;;2.50;2.30;;;;;;;;;;5082201;28;20421;-75
2022/07/13 02:30:17;;;;;;;3.22;2.15;;;;;;;;;;5083609;28;20438;-75
2022/07/13 02:32:46;;;;;;;2.47;2.38;;;;;;;;;;5089955;28;20505;-74
2022/07/13 02:35:13;;;;;;;2.60;2.40;;;;;;;;;;5088288;28;20425;-76
2022/07/13 02:37:40;;;;;;;2.55;2.35;;;;;;;;;;5088895;28;20436;-75
2022/07/13 02:40:09;;;;;;;2.20;2.00;;;;;;;;;;5085571;28;20429;-75
2022/07/13 02:42:36;;;;;;;2.40;2.20;;;;;;;;;;5088421;28;20809;-75
2022/07/13 02:45:04;;;;;;;2.30;2.08;;;;;;;;;;5080283;28;20442;-74
2022/07/13 02:47:31;;;;;;;2.90;2.30;;;;;;;;;;5081627;28;20798;-76
2022/07/13 02:49:59;;;;;;;2.33;2.13;;;;;;;;;;5081787;28;20426;-74
2022/07/13 02:52:26;;;;;;;2.70;2.30;;;;;;;;;;5085934;28;20425;-75
2022/07/13 02:54:53;;;;;;;2.25;2.05;;;;;;;;;;5085184;28;20516;-75
2022/07/13 02:57:21;;;;;;;2.10;2.00;;;;;;;;;;5088958;28;20892;-75
2022/07/13 02:59:48;;;;;;;2.00;1.90;;;;;;;;;;5086545;28;20434;-76
2022/07/13 03:02:15;;;;;;;2.20;2.10;;;;;;;;;;5080312;28;20464;-75
2022/07/13 03:04:42;;;;;;;2.90;2.00;;;;;;;;;;5085020;28;20917;-75
2022/07/13 03:07:11;;;;;;;2.23;2.00;;;;;;;;;;5085486;28;20433;-75
2022/07/13 03:09:38;;;;;;;2.28;1.90;;;;;;;;;;5084980;28;20448;-75
2022/07/13 03:12:05;;;;;;;1.98;1.60;;;;;;;;;;5083028;28;20445;-75
2022/07/13 03:14:32;;;;;;;2.33;2.13;;;;;;;;;;5088007;28;20429;-75
2022/07/13 03:17:00;;;;;;;2.58;2.10;;;;;;;;;;5078011;28;20926;-75
2022/07/13 03:19:27;;;;;;;2.20;2.00;;;;;;;;;;5084400;28;20444;-76
2022/07/13 03:21:54;;;;;;;2.88;2.00;;;;;;;;;;5082241;28;20438;-75
2022/07/13 03:24:22;;;;;;;1.80;1.70;;;;;;;;;;5085179;28;20966;-75
2022/07/13 03:26:50;;;;;;;2.67;1.93;;;;;;;;;;5082101;28;20481;-75
2022/07/13 03:29:17;;;;;;;2.10;1.90;;;;;;;;;;5082911;28;20450;-75
2022/07/13 03:31:44;;;;;;;2.40;2.10;;;;;;;;;;5087080;28;20426;-75
2022/07/13 03:34:11;;;;;;;2.60;1.98;;;;;;;;;;5083775;28;20437;-75
2022/07/13 03:36:38;;;;;;;2.38;2.20;;;;;;;;;;5082424;28;20931;-75
2022/07/13 03:39:05;;;;;;;2.35;2.15;;;;;;;;;;5084781;28;20433;-74
2022/07/13 03:41:34;;;;;;;2.30;2.10;;;;;;;;;;5083305;28;20448;-74
2022/07/13 03:44:01;;;;;;;2.38;1.98;;;;;;;;;;5093450;28;20425;-76
2022/07/13 03:46:28;;;;;;;2.60;2.00;;;;;;;;;;5087632;28;20902;-76
2022/07/13 03:48:55;;;;;;;2.30;2.10;;;;;;;;;;5083147;28;20514;-75
2022/07/13 03:51:22;;;;;;;2.05;1.95;;;;;;;;;;5079566;28;20430;-76
2022/07/13 03:53:49;;;;;;;2.00;1.90;;;;;;;;;;5081034;28;20501;-76
2022/07/13 03:56:16;;;;;;;1.90;1.80;;;;;;;;;;5084247;28;20426;-76
2022/07/13 03:58:45;;;;;;;2.50;2.10;;;;;;;;;;5084610;28;20430;-75
2022/07/13 04:01:12;;;;;;;2.58;2.00;;;;;;;;;;5082546;28;21039;-75
2022/07/13 04:03:39;;;;;;;4.07;2.30;;;;;;;;;;5071989;28;20917;-77
2022/07/13 04:06:06;;;;;;;2.30;2.10;;;;;;;;;;5084215;28;20435;-76
2022/07/13 04:08:34;;;;;;;2.55;2.00;;;;;;;;;;5084419;28;20429;-75
2022/07/13 04:11:01;;;;;;;2.97;2.40;;;;;;;;;;5082026;28;20429;-76
2022/07/13 04:13:29;;;;;;;2.30;2.10;;;;;;;;;;5082572;28;20438;-77
2022/07/13 04:15:57;;;;;;;3.38;2.17;;;;;;;;;;5073774;28;20430;-76
2022/07/13 04:18:24;;;;;;;2.85;1.98;;;;;;;;;;5087697;28;20437;-76
2022/07/13 04:20:51;;;;;;;2.40;2.20;;;;;;;;;;5087782;28;20436;-77
2022/07/13 04:23:18;;;;;;;2.13;1.93;;;;;;;;;;5087772;28;20445;-78
2022/07/13 04:25:46;;;;;;;2.50;1.92;;;;;;;;;;5086729;28;20440;-79
2022/07/13 04:28:13;;;;;;;2.40;2.20;;;;;;;;;;5085645;28;20426;-78
2022/07/13 04:30:40;;;;;;;2.65;2.45;;;;;;;;;;5081847;28;20449;-78
2022/07/13 04:33:08;;;;;;;2.70;2.50;;;;;;;;;;5084294;28;20440;-76
2022/07/13 04:35:35;;;;;;;4.13;2.60;;;;;;;;;;5085267;28;20796;-76
2022/07/13 04:38:03;;;;;;;3.20;2.20;;;;;;;;;;5070241;28;20408;-77
2022/07/13 04:40:30;;;;;;;2.95;2.10;;;;;;;;;;5083752;28;20440;-77
2022/07/13 04:42:57;;;;;;;2.40;2.20;;;;;;;;;;5087890;28;20425;-72
2022/07/13 04:45:24;;;;;;;2.25;2.10;;;;;;;;;;5087839;28;20429;-73
2022/07/13 04:47:51;;;;;;;2.60;2.10;;;;;;;;;;5096786;28;20426;-73
2022/07/13 04:50:20;;;;;;;3.80;2.20;;;;;;;;;;5090895;28;20426;-72
2022/07/13 04:52:47;;;;;;;3.28;2.30;;;;;;;;;;5079890;28;20866;-73
2022/07/13 04:55:16;;;;;;;2.90;2.25;;;;;;;;;;5085042;28;20429;-73
2022/07/13 04:57:43;;;;;;;2.33;2.13;;;;;;;;;;5080879;28;20505;-73
2022/07/13 05:00:10;;;;;;;2.47;2.00;;;;;;;;;;5079367;28;20433;-74
2022/07/13 05:02:38;;;;;;;2.80;2.20;;;;;;;;;;5082073;28;20434;-74
2022/07/13 05:05:05;;;;;;;2.43;2.10;;;;;;;;;;5075595;28;20435;-73
2022/07/13 05:07:33;;;;;;;3.08;2.30;;;;;;;;;;5085267;28;20437;-74
2022/07/13 05:10:00;;;;;;;2.70;2.10;;;;;;;;;;5080564;28;20414;-75
2022/07/13 05:12:28;;;;;;;3.13;2.20;;;;;;;;;;5081691;28;20417;-73
2022/07/13 05:14:57;;;;;;;2.60;2.40;;;;;;;;;;5086511;28;20416;-73
2022/07/13 05:17:24;;;;;;;3.53;2.20;;;;;;;;;;5081639;28;20510;-73
2022/07/13 05:19:51;;;;;;;4.22;2.50;;;;;;;;;;5085323;28;20424;-74
2022/07/13 05:22:18;;;;;;;5.00;2.60;;;;;;;;;;5084446;28;20403;-73
2022/07/13 05:24:46;;;;;;;3.38;2.42;;;;;;;;;;5080612;28;20834;-73
2022/07/13 05:27:13;;;;;;;2.67;2.47;;;;;;;;;;5089499;28;20426;-72
2022/07/13 05:29:41;;;;;;;3.60;2.60;;;;;;;;;;5080743;28;20419;-73
2022/07/13 05:32:08;;;;;;;2.67;2.43;;;;;;;;;;5089171;28;20411;-74
2022/07/13 05:34:35;;;;;;;3.20;2.50;;;;;;;;;;5088836;28;20505;-74
2022/07/13 05:37:02;;;;;;;2.90;2.60;;;;;;;;;;5089412;28;20416;-74
2022/07/13 05:39:29;;;;;;;2.50;2.30;;;;;;;;;;5088948;28;20421;-73
2022/07/13 05:41:58;;;;;;;4.03;2.80;;;;;;;;;;5089200;28;20505;-73
2022/07/13 05:44:25;;;;;;;2.70;2.35;;;;;;;;;;5088884;28;20417;-73
2022/07/13 05:46:52;;;;;;;2.60;2.40;;;;;;;;;;5081156;28;20427;-73
2022/07/13 05:49:19;;;;;;;2.90;2.30;;;;;;;;;;5088850;28;20421;-72
2022/07/13 05:51:46;;;;;;;2.50;2.30;;;;;;;;;;5088478;28;20414;-72
2022/07/13 05:54:13;;;;;;;2.60;2.40;;;;;;;;;;5088200;28;20521;-73
2022/07/13 05:56:40;;;;;;;3.10;2.40;;;;;;;;;;5089224;28;20414;-74
2022/07/13 05:59:09;;;;;;;3.37;2.30;;;;;;;;;;5088001;28;20417;-73
2022/07/13 06:01:36;;;;;;;3.00;2.30;;;;;;;;;;5085533;28;20512;-74
2022/07/13 06:04:03;;;;;;;3.40;2.10;;;;;;;;;;5080992;28;20418;-72
2022/07/13 06:06:30;;;;;;;2.43;2.20;;;;;;;;;;5088566;28;20603;-73
2022/07/13 06:08:57;;;;;;;2.70;2.30;;;;;;;;;;5067337;28;20427;-74
2022/07/13 06:11:24;;;;;;;2.90;2.60;;;;;;;;;;5078577;28;20416;-74
2022/07/13 06:13:51;;;;;;;2.78;2.58;;;;;;;;;;5085389;28;20421;-74
2022/07/13 06:16:20;;;;;;;4.30;2.50;;;;;;;;;;5068566;28;20426;-74
2022/07/13 06:18:47;;;;;;;2.78;2.35;;;;;;;;;;5068111;28;20449;-73
2022/07/13 06:21:14;;;;;;;3.90;2.50;;;;;;;;;;5078451;28;20415;-73
2022/07/13 06:23:41;;;;;;;4.03;2.42;;;;;;;;;;5085871;28;20866;-74
2022/07/13 06:26:08;;;;;;;2.50;2.30;;;;;;;;;;5087974;28;20429;-74
2022/07/13 06:28:35;;;;;;;3.00;2.10;;;;;;;;;;5087834;28;20433;-73
2022/07/13 06:31:03;;;;;;;3.30;2.10;;;;;;;;;;5083762;28;20871;-72
2022/07/13 06:33:31;;;;;;;2.30;2.00;;;;;;;;;;5084583;28;20504;-73
2022/07/13 06:35:58;;;;;;;2.67;2.07;;;;;;;;;;5088451;28;20413;-73
2022/07/13 06:38:25;;;;;;;5.20;2.20;;;;;;;;;;5087598;28;20876;-73
2022/07/13 06:40:53;;;;;;;5.18;2.40;;;;;;;;;;5083688;28;20426;-73
2022/07/13 06:43:20;;;;;;;3.67;2.30;;;;;;;;;;5075147;28;20852;-73
2022/07/13 06:45:47;;;;;;;4.80;2.30;;;;;;;;;;5080927;28;20436;-74
2022/07/13 06:48:15;;;;;;;7.35;2.40;;;;;;;;;;5085662;22;20436;-75
2022/07/13 06:50:43;;;;;;;4.68;2.85;;;;;;;;;;5039943;28;20784;-74
2022/07/13 06:53:10;;;;;;;6.30;2.85;;;;;;;;;;5042886;28;20425;-73
2022/07/13 06:55:37;;;;;;;4.65;2.55;;;;;;;;;;5043331;28;20853;-74
2022/07/13 06:58:05;;;;;;;5.43;2.33;;;;;;;;;;5037685;28;20425;-73
2022/07/13 07:00:32;;;;;;;3.60;2.40;;;;;;;;;;5024775;28;20415;-73
2022/07/13 07:02:59;;;;;;;2.97;2.13;;;;;;;;;;5025818;28;20438;-74
2022/07/13 07:05:26;;;;;;;3.75;2.60;;;;;;;;;;5022004;28;20771;-73
2022/07/13 07:07:54;;;;;;;5.32;2.60;;;;;;;;;;5025067;28;20443;-75
2022/07/13 07:10:21;;;;;;;2.92;2.10;;;;;;;;;;5023626;28;20510;-74
2022/07/13 07:12:48;;;;;;;3.42;2.60;;;;;;;;;;5025229;28;20818;-74
2022/07/13 07:15:16;;;;;;;3.30;2.10;;;;;;;;;;5028521;28;20423;-74
2022/07/13 07:17:46;;;;;;;4.07;2.50;;;;;;;;;;5028587;28;20917;-74
2022/07/13 07:20:14;;;;;;;6.00;2.60;;;;;;;;;;5028231;28;20852;-73
2022/07/13 07:22:41;;;;;;;4.40;2.70;;;;;;;;;;5029171;28;20429;-76
2022/07/13 07:25:10;;;;;;;2.90;2.40;;;;;;;;;;5027436;28;20414;-74
2022/07/13 07:27:37;;;;;;;3.65;2.30;;;;;;;;;;5028267;28;20902;-74
2022/07/13 07:30:05;;;;;;;3.30;2.13;;;;;;;;;;5028233;28;20427;-74
2022/07/13 07:32:32;;;;;;;3.00;2.08;;;;;;;;;;5028705;28;20767;-73
2022/07/13 07:34:59;;;;;;;3.30;2.10;;;;;;;;;;5028537;28;20441;-74
2022/07/13 07:37:26;;;;;;;4.53;2.50;;;;;;;;;;5028626;28;20506;-74
2022/07/13 07:39:53;;;;;;;4.57;2.35;;;;;;;;;;5025020;28;20445;-74
2022/07/13 07:42:23;;;;;;;5.20;2.20;;;;;;;;;;5023349;28;20787;-73
2022/07/13 07:44:50;;;;;;;4.70;2.63;;;;;;;;;;5027998;28;20423;-74
2022/07/13 07:47:17;;;;;;;2.80;2.20;;;;;;;;;;5028452;28;20419;-74
2022/07/13 07:49:44;;;;;;;3.90;2.60;;;;;;;;;;5028429;28;20433;-73
2022/07/13 07:52:12;;;;;;;2.83;2.10;;;;;;;;;;5028208;28;20446;-73
2022/07/13 07:54:39;;;;;;;4.43;2.20;;;;;;;;;;5028418;28;20415;-73
2022/07/13 07:57:06;;;;;;;2.50;2.27;;;;;;;;;;5029239;28;20421;-73
2022/07/13 07:59:34;;;;;;;4.77;2.10;;;;;;;;;;5028848;28;20423;-73
2022/07/13 08:02:01;;;;;;;2.67;1.90;;;;;;;;;;5024864;28;20415;-73
2022/07/13 08:04:28;;;;;;;3.65;2.58;;;;;;;;;;5028193;28;20744;-73
2022/07/13 08:06:55;;;;;;;4.20;2.20;;;;;;;;;;5028185;28;20514;-73
2022/07/13 08:09:23;;;;;;;3.72;1.80;;;;;;;;;;5027341;28;20426;-73
2022/07/13 08:11:50;;;;;;;3.30;2.20;;;;;;;;;;5027842;28;20426;-73
2022/07/13 08:14:17;;;;;;;5.13;2.30;;;;;;;;;;5027365;28;20423;-73
2022/07/13 08:16:45;;;;;;;3.60;2.42;;;;;;;;;;5028031;28;20844;-73
2022/07/13 08:19:13;;;;;;;3.22;2.33;;;;;;;;;;5027516;28;20419;-73
2022/07/13 08:21:40;;;;;;;3.28;2.40;;;;;;;;;;5028259;28;20430;-75
2022/07/13 08:24:07;;;;;;;2.75;1.88;;;;;;;;;;5026527;28;20441;-75
2022/07/13 08:26:34;;;;;;;3.30;2.05;;;;;;;;;;5028452;28;20450;-75
2022/07/13 08:29:02;;;;;;;4.60;2.20;;;;;;;;;;5027147;28;20903;-73
2022/07/13 08:31:29;;;;;;;3.40;2.30;;;;;;;;;;5026673;28;20473;-73
2022/07/13 08:39:27;;;;;;;3.17;2.50;;;;;;;;;;5026686;28;20586;-74
2022/07/13 08:41:57;;;;;;;3.35;2.42;;;;;;;;;;5027120;28;20509;-75
2022/07/13 08:44:24;;;;;;;4.40;2.60;;;;;;;;;;5027241;28;20481;-73
2022/07/13 08:46:52;;;;;;;5.05;2.60;;;;;;;;;;5027423;28;20465;-73
2022/07/13 08:49:21;;;;;;;3.65;2.60;;;;;;;;;;5020981;28;20428;-74
2022/07/13 08:51:48;;;;;;;3.17;2.10;;;;;;;;;;5025781;28;20530;-73
2022/07/13 08:54:15;;;;;;;3.20;2.17;;;;;;;;;;5025760;28;20873;-74
2022/07/13 08:56:42;;;;;;;3.90;2.10;;;;;;;;;;5027195;28;20902;-74
2022/07/13 08:59:09;;;;;;;5.32;2.50;;;;;;;;;;5027318;28;20516;-74
2022/07/13 09:01:37;;;;;;;4.70;2.30;;;;;;;;;;5026732;28;20977;-74
2022/07/13 09:04:04;;;;;;;2.80;1.95;;;;;;;;;;5027090;28;20437;-74
2022/07/13 09:06:45;;;;;;;5.75;2.55;;;;;;;;;;5027164;28;20721;-75
2022/07/13 09:09:32;;;;;;;3.47;2.05;;;;;;;;;;5025682;28;20457;-75
2022/07/13 09:12:10;;;;;;;3.60;2.05;;;;;;;;;;5018873;28;20411;-73
2022/07/13 09:14:37;;;;;;;4.07;2.30;;;;;;;;;;5025541;28;20752;-74
2022/07/13 09:17:04;;;;;;;2.95;2.08;;;;;;;;;;5027164;28;20469;-74
2022/07/13 09:19:35;;;;;;;3.23;2.10;;;;;;;;;;5026236;28;20435;-74
2022/07/13 09:22:13;;;;;;;3.00;2.50;;;;;;;;;;5018649;28;20814;-76
2022/07/13 09:24:44;;;;;;;4.78;2.10;;;;;;;;;;5025810;28;20438;-76
2022/07/13 09:27:12;;;;;;;3.28;2.00;;;;;;;;;;5021165;28;20545;-77
2022/07/13 09:29:39;;;;;;;3.20;2.42;;;;;;;;;;5026416;28;20442;-73
2022/07/13 09:32:08;;;;;;;3.00;2.30;;;;;;;;;;5026643;28;20418;-76
2022/07/13 09:34:50;;;;;;;2.00;1.90;;;;;;;;;;5026299;28;20423;-73
2022/07/13 09:37:19;;;;;;;4.40;2.17;;;;;;;;;;5026328;28;20524;-73
2022/07/13 09:40:06;;;;;;;5.47;2.20;;;;;;;;;;5025362;28;20426;-74
2022/07/13 09:42:34;;;;;;;4.57;1.95;;;;;;;;;;5025846;28;20438;-74
2022/07/13 09:47:51;;;;;;;4.10;2.10;;;;;;;;;;5026294;28;20438;-76
2022/07/13 09:50:18;;;;;;;3.10;2.00;;;;;;;;;;5017268;28;20472;-76
2022/07/13 09:52:47;;;;;;;3.03;2.20;;;;;;;;;;5024489;28;20419;-73
2022/07/13 09:55:19;;;;;;;2.63;1.90;;;;;;;;;;5025285;28;20482;-76
2022/07/13 09:57:47;;;;;;;2.90;1.83;;;;;;;;;;5026194;28;20486;-76
2022/07/13 10:00:17;;;;;;;3.55;2.00;;;;;;;;;;5025701;28;20445;-76
2022/07/13 10:02:45;;;;;;;2.85;1.80;;;;;;;;;;5024039;28;20471;-77
2022/07/13 10:05:12;;;;;;;5.45;2.15;;;;;;;;;;5026138;28;20509;-76
2022/07/13 10:07:40;;;;;;;3.80;2.00;;;;;;;;;;5026552;28;20740;-76
2022/07/13 10:10:09;;;;;;;6.28;2.00;;;;;;;;;;5024947;28;20427;-75
2022/07/13 10:12:37;;;;;;;6.80;1.60;;;;;;;;;;5026595;28;20419;-75
2022/07/13 10:15:04;;;;;;;3.83;1.73;;;;;;;;;;5025968;28;20518;-75
2022/07/13 10:17:32;;;;;;;4.70;1.90;;;;;;;;;;5026706;28;20418;-74
2022/07/13 10:20:05;;;;;;;5.90;1.90;;;;;;;;;;5026117;28;20415;-73
2022/07/13 10:22:34;;;;;;;3.90;1.90;;;;;;;;;;5026571;28;20426;-75
2022/07/13 10:25:01;;;;;;;3.22;1.73;;;;;;;;;;5025139;28;20437;-76
2022/07/13 10:27:30;;;;;;;2.90;1.90;;;;;;;;;;5026179;28;20410;-73
2022/07/13 10:29:58;;;;;;;1.70;1.60;;;;;;;;;;5024972;28;20430;-73
2022/07/13 10:32:26;;;;;;;3.70;1.80;;;;;;;;;;5026080;28;20530;-74
2022/07/13 10:34:54;;;;;;;2.83;1.70;;;;;;;;;;5025541;28;20430;-75
2022/07/13 10:37:23;;;;;;;4.28;2.00;;;;;;;;;;5026371;28;20415;-76
2022/07/13 10:40:10;;;;;;;3.55;1.70;;;;;;;;;;5024836;28;20423;-75
2022/07/13 10:42:52;;;;;;;3.95;1.90;;;;;;;;;;5026676;28;20466;-75
2022/07/13 10:45:43;;;;;;;2.63;1.70;;;;;;;;;;5024358;28;20854;-75
2022/07/13 10:48:32;;;;;;;4.70;2.10;;;;;;;;;;5026125;28;20422;-73
2022/07/13 10:51:00;;;;;;;3.17;1.80;;;;;;;;;;5021187;28;20411;-73
2022/07/13 10:53:43;;;;;;;3.10;1.90;;;;;;;;;;5029695;28;20502;-74
2022/07/13 10:56:17;;;;;;;4.22;1.90;;;;;;;;;;5029547;28;20418;-73
2022/07/13 10:58:45;;;;;;;3.88;1.90;;;;;;;;;;5024420;28;20426;-74
2022/07/13 11:01:33;;;;;;;4.20;1.70;;;;;;;;;;5029800;28;20425;-76
2022/07/13 11:04:01;;;;;;;2.75;1.90;;;;;;;;;;5006825;28;20656;-74
2022/07/13 11:06:28;;;;;;;2.08;1.80;;;;;;;;;;5013053;28;20422;-74
2022/07/13 11:09:08;;;;;;;4.38;1.83;;;;;;;;;;5026982;28;20522;-73
2022/07/13 11:11:43;;;;;;;3.30;2.10;;;;;;;;;;5029131;28;20418;-74
2022/07/13 11:14:25;;;;;;;2.05;1.70;;;;;;;;;;5027248;28;20427;-73
2022/07/13 11:16:52;;;;;;;2.90;1.77;;;;;;;;;;5027461;28;20422;-74
2022/07/13 11:19:34;;;;;;;3.10;1.80;;;;;;;;;;5029327;28;20429;-73
2022/07/13 11:22:08;;;;;;;2.20;1.70;;;;;;;;;;5028717;28;20415;-76
2022/07/13 11:27:24;;;;;;;1.73;1.55;;;;;;;;;;5029149;28;20560;-74
2022/07/13 11:29:54;;;;;;;2.28;1.60;;;;;;;;;;5028834;28;20553;-75
2022/07/13 11:32:22;;;;;;;2.00;1.50;;;;;;;;;;5029166;28;20473;-75
2022/07/13 11:34:49;;;;;;;2.10;1.60;;;;;;;;;;5029013;28;20763;-74
2022/07/13 11:37:23;;;;;;;2.30;1.35;;;;;;;;;;5028781;28;20494;-75
2022/07/13 11:39:50;;;;;;;3.30;1.40;;;;;;;;;;5027494;28;20426;-76
2022/07/13 11:42:22;;;;;;;1.52;1.42;;;;;;;;;;5028337;28;20446;-76
2022/07/13 11:44:51;;;;;;;2.20;1.30;;;;;;;;;;5027771;28;20860;-76
2022/07/13 11:47:18;;;;;;;2.80;1.80;;;;;;;;;;5028702;28;20783;-75
2022/07/13 11:49:46;;;;;;;2.83;1.63;;;;;;;;;;5028430;28;20519;-76
2022/07/13 11:52:21;;;;;;;1.50;1.20;;;;;;;;;;5026239;28;20879;-76
2022/07/13 11:55:01;;;;;;;1.42;1.20;;;;;;;;;;5027599;28;20898;-75
2022/07/13 11:57:29;;;;;;;3.60;1.30;;;;;;;;;;5027588;28;20759;-75
2022/07/13 12:00:01;;;;;;;1.60;1.30;;;;;;;;;;5027101;28;20420;-76
2022/07/13 12:02:28;;;;;;;1.60;1.20;;;;;;;;;;5028653;28;20606;-74
2022/07/13 12:04:55;;;;;;;1.50;1.00;;;;;;;;;;5027678;28;20419;-74
2022/07/13 12:07:24;;;;;;;1.48;1.00;;;;;;;;;;5028615;28;20512;-75
2022/07/13 12:09:52;;;;;;;1.95;1.00;;;;;;;;;;5026812;28;20427;-76
2022/07/13 12:12:20;;;;;;;1.03;1.00;;;;;;;;;;5028074;28;20529;-76
2022/07/13 12:14:48;;;;;;;1.80;1.10;;;;;;;;;;5028020;28;20433;-76
2022/07/13 12:17:16;;;;;;;1.85;0.80;;;;;;;;;;5028012;28;20423;-75
2022/07/13 12:19:43;;;;;;;1.40;0.90;;;;;;;;;;5027962;28;20415;-74
2022/07/13 12:22:10;;;;;;;1.25;1.15;;;;;;;;;;5027772;28;20513;-74
2022/07/13 12:24:43;;;;;;;2.00;1.00;;;;;;;;;;5027561;28;20505;-74
2022/07/13 12:27:11;;;;;;;1.80;1.10;;;;;;;;;;5028614;28;20411;-74
2022/07/13 12:29:38;;;;;;;2.60;1.20;;;;;;;;;;5028373;28;20430;-74
2022/07/13 12:32:05;;;;;;;4.03;1.50;;;;;;;;;;5028017;28;20505;-74
2022/07/13 12:34:33;;;;;;;3.97;1.30;;;;;;;;;;5022949;28;20415;-75
2022/07/13 12:37:00;;;;;;;1.90;1.00;;;;;;;;;;5028914;28;20925;-75
2022/07/13 12:39:35;;;;;;;2.40;1.23;;;;;;;;;;5027432;28;20415;-74
2022/07/13 12:42:04;;;;;;;6.00;1.45;;;;;;;;;;5028261;28;20484;-75
2022/07/13 12:44:31;;;;;;;4.70;1.30;;;;;;;;;;5027750;28;20735;-75
2022/07/13 12:47:00;;;;;;;5.55;1.88;;;;;;;;;;5027534;28;20842;-75
2022/07/13 12:49:29;;;;;;;5.82;1.15;;;;;;;;;;5092106;22;20522;-74
2022/07/13 12:51:56;;;;;;;3.35;1.50;;;;;;;;;;5087973;28;20418;-75
2022/07/13 12:54:42;;;;;;;3.33;1.50;;;;;;;;;;5087145;28;20414;-73
2022/07/13 12:57:10;;;;;;;5.70;2.00;;;;;;;;;;5081629;28;20417;-73
2022/07/13 12:59:38;;;;;;;2.35;1.30;;;;;;;;;;5072191;28;20478;-74
2022/07/13 13:02:05;;;;;;;1.42;1.20;;;;;;;;;;5065075;28;20415;-73
2022/07/13 13:04:33;;;;;;;7.22;1.80;;;;;;;;;;5069207;28;20772;-75
2022/07/13 13:07:00;;;;;;;5.70;1.52;;;;;;;;;;5052052;28;20422;-74
2022/07/13 13:09:27;;;;;;;6.65;1.40;;;;;;;;;;5067250;28;20447;-73
2022/07/13 13:11:54;;;;;;;3.97;1.55;;;;;;;;;;5067526;28;20434;-74
2022/07/13 13:14:22;;;;;;;3.08;1.30;;;;;;;;;;5068500;28;20423;-74
2022/07/13 13:16:49;;;;;;;4.13;1.40;;;;;;;;;;5068148;28;20438;-75
2022/07/13 13:19:17;;;;;;;4.88;1.30;;;;;;;;;;5068046;28;20427;-75
2022/07/13 13:21:44;;;;;;;9.17;1.70;;;;;;;;;;5068020;28;20423;-75
2022/07/13 13:24:11;;;;;;;3.10;1.10;;;;;;;;;;5067239;28;20496;-74
2022/07/13 13:26:41;;;;;;;10.43;1.73;;;;;;;;;;5068025;28;20779;-74
2022/07/13 13:31:54;;;;;;;1.20;1.00;;;;;;;;;;5064421;28;20465;-74
2022/07/13 13:34:22;;;;;;;1.85;1.20;;;;;;;;;;5062662;28;20859;-72
2022/07/13 13:36:49;;;;;;;4.85;1.40;;;;;;;;;;5067781;28;20807;-74
2022/07/13 13:39:16;;;;;;;1.80;1.10;;;;;;;;;;5067051;28;20411;-74
2022/07/13 13:41:44;;;;;;;1.90;1.20;;;;;;;;;;5067683;28;20840;-75
2022/07/13 13:44:11;;;;;;;3.00;1.00;;;;;;;;;;5068838;28;20411;-74
2022/07/13 13:46:39;;;;;;;1.88;0.80;;;;;;;;;;5066403;28;20416;-74
2022/07/13 13:49:07;;;;;;;2.20;1.00;;;;;;;;;;5066396;28;20435;-74
2022/07/13 13:51:34;;;;;;;2.38;0.90;;;;;;;;;;5067232;28;20508;-73
2022/07/13 13:54:02;;;;;;;2.15;1.00;;;;;;;;;;5066762;28;20446;-73
2022/07/13 13:56:29;;;;;;;1.42;1.05;;;;;;;;;;5067899;28;20412;-73
2022/07/13 13:58:56;;;;;;;1.80;1.10;;;;;;;;;;5064861;28;20981;-74
2022/07/13 14:01:23;;;;;;;2.10;1.00;;;;;;;;;;5066360;28;20418;-73
2022/07/13 14:03:50;;;;;;;1.60;1.10;;;;;;;;;;5067876;28;20748;-73
2022/07/13 14:06:19;;;;;;;1.50;1.00;;;;;;;;;;5067752;28;20434;-73
2022/07/13 14:08:46;;;;;;;2.55;1.17;;;;;;;;;;5066836;28;20966;-75
2022/07/13 14:11:13;;;;;;;1.17;0.80;;;;;;;;;;5067957;28;20431;-73
2022/07/13 14:13:41;;;;;;;1.98;1.00;;;;;;;;;;5067282;28;20454;-72
2022/07/13 14:16:08;;;;;;;2.03;1.00;;;;;;;;;;5067661;28;20986;-74
2022/07/13 14:18:36;;;;;;;1.90;1.23;;;;;;;;;;5067903;28;20416;-73
2022/07/13 14:21:04;;;;;;;1.08;0.98;;;;;;;;;;5067691;28;20430;-73
2022/07/13 14:23:32;;;;;;;2.20;1.00;;;;;;;;;;5071112;28;20423;-74
2022/07/13 14:25:59;;;;;;;3.20;1.20;;;;;;;;;;5071605;28;20430;-72
2022/07/13 14:28:27;;;;;;;1.80;1.20;;;;;;;;;;5072222;28;20423;-73
2022/07/13 14:30:54;;;;;;;2.27;1.20;;;;;;;;;;5071316;28;20431;-74
2022/07/13 14:33:21;;;;;;;2.70;1.20;;;;;;;;;;5072527;28;20403;-73
2022/07/13 14:35:48;;;;;;;1.30;1.20;;;;;;;;;;5074632;28;20760;-73
2022/07/13 14:38:16;;;;;;;3.00;1.30;;;;;;;;;;5075261;28;20482;-74
2022/07/13 14:40:45;;;;;;;1.70;1.20;;;;;;;;;;5072998;28;20404;-73
2022/07/13 14:43:13;;;;;;;2.05;1.10;;;;;;;;;;5071592;28;20422;-72
2022/07/13 14:45:40;;;;;;;2.87;1.20;;;;;;;;;;5071042;28;20407;-72
2022/07/13 14:48:07;;;;;;;2.40;1.33;;;;;;;;;;5070986;28;20848;-73
2022/07/13 14:50:34;;;;;;;2.33;1.33;;;;;;;;;;5070956;28;20434;-73
2022/07/13 14:53:01;;;;;;;2.45;1.60;;;;;;;;;;5071605;28;20411;-73
2022/07/13 14:55:29;;;;;;;3.33;1.77;;;;;;;;;;5070406;28;20499;-73
2022/07/13 14:57:57;;;;;;;2.30;1.20;;;;;;;;;;5071068;28;20747;-73
2022/07/13 15:00:24;;;;;;;2.88;1.30;;;;;;;;;;5070330;28;20447;-72
2022/07/13 15:02:52;;;;;;;3.00;1.23;;;;;;;;;;5070993;28;20411;-72